^^
Saratoga-Weather Station Historical Data
Daily Summary for November 1, 2020 Units:  Metric    English   Both
Daily Weekly Monthly Yearly Custom
  High: Low: Average:
Temperature: 17.6 °C 14.3 °C 15.6 °C
Dew Point: 15.4 °C 12.1 °C 13.9 °C
Humidity: 95% 78% 89%
Wind Speed: 16.3km/h 0km/h 3.5km/h
Wind Gust: 32.2km/h - -
Wind- - SSW
Pressure: 1016.6 hPa 1012.5 hPa -
Precipitation: 3.3 mm    
Historical Graphs
 
 
Tabular Data for November 1, 2020
Time Temperature Dew Point Pressure Wind Wind Speed Wind Gust Humidity Rainfall Rate (Hourly) solar
00:02 15.6 °C 12.2 °C 1016.6 hPa SSW 4.7 km/h 6.4 km/h 80% 0.0 mm 0 W/m2
00:07 15.6 °C 12.2 °C 1016.6 hPa East 1.4 km/h 4.8 km/h 80% 0.0 mm 0 W/m2
00:12 15.6 °C 12.2 °C 1016.6 hPa WNW 1.4 km/h 11.3 km/h 80% 0.0 mm 0 W/m2
00:17 15.7 °C 12.3 °C 1016.6 hPa ESE 1.4 km/h 3.2 km/h 80% 0.0 mm 0 W/m2
00:22 15.7 °C 12.1 °C 1016.3 hPa NW 7.9 km/h 8 km/h 79% 0.0 mm 0 W/m2
00:27 15.9 °C 12.1 °C 1016.3 hPa NW 1.4 km/h 4.8 km/h 78% 0.0 mm 0 W/m2
00:32 15.9 °C 12.1 °C 1016.3 hPa NW 1.4 km/h 3.2 km/h 78% 0.0 mm 0 W/m2
00:37 15.9 °C 12.1 °C 1016.3 hPa Calm   1.6 km/h 78% 0.0 mm 0 W/m2
00:42 15.9 °C 12.1 °C 1016.3 hPa North 3.2 km/h 12.9 km/h 78% 0.0 mm 0 W/m2
00:47 16 °C 12.4 °C 1016.3 hPa Calm   9.7 km/h 79% 0.0 mm 0 W/m2
00:52 16 °C 12.4 °C 1016.3 hPa NW 1.4 km/h 16.1 km/h 79% 0.0 mm 0 W/m2
00:57 15.9 °C 12.3 °C 1016.3 hPa North 4.7 km/h 9.7 km/h 79% 0.0 mm 0 W/m2
01:02 15.9 °C 12.5 °C 1016.3 hPa South 1.4 km/h 11.3 km/h 80% 0.0 mm 0 W/m2
01:07 15.9 °C 12.5 °C 1016.3 hPa Calm   4.8 km/h 80% 0.0 mm 0 W/m2
01:12 15.9 °C 12.5 °C 1016.3 hPa NW 3.2 km/h 6.4 km/h 80% 0.0 mm 0 W/m2
01:17 15.8 °C 12.4 °C 1016.3 hPa Calm   6.4 km/h 80% 0.0 mm 0 W/m2
01:22 15.8 °C 12.4 °C 1016.3 hPa NW 3.2 km/h 3.2 km/h 80% 0.0 mm 0 W/m2
01:27 15.8 °C 12.4 °C 1016.6 hPa SSE 4.7 km/h 6.4 km/h 80% 0.0 mm 0 W/m2
01:32 15.8 °C 12.4 °C 1016.3 hPa Calm   4.8 km/h 80% 0.0 mm 0 W/m2
01:37 15.8 °C 12.5 °C 1016.3 hPa NNE 1.4 km/h 4.8 km/h 81% 0.0 mm 0 W/m2
01:42 15.7 °C 12.4 °C 1016.3 hPa NNW 1.4 km/h 6.4 km/h 81% 0.0 mm 0 W/m2
01:47 15.7 °C 12.6 °C 1016.3 hPa NNW 7.9 km/h 8 km/h 82% 0.0 mm 0 W/m2
01:52 15.6 °C 12.5 °C 1016.3 hPa WNW 3.2 km/h 4.8 km/h 82% 0.0 mm 0 W/m2
01:57 15.4 °C 12.5 °C 1016.3 hPa ENE 1.4 km/h 6.4 km/h 83% 0.0 mm 0 W/m2
02:02 15.4 °C 12.5 °C 1016.3 hPa Calm   3.2 km/h 83% 0.0 mm 0 W/m2
02:07 15.3 °C 12.4 °C 1016.3 hPa WNW 1.4 km/h 4.8 km/h 83% 0.0 mm 0 W/m2
02:12 15.3 °C 12.6 °C 1016.3 hPa East 4.7 km/h 4.8 km/h 84% 0.0 mm 0 W/m2
02:17 15.2 °C 12.5 °C 1016.3 hPa NNW 3.2 km/h 4.8 km/h 84% 0.0 mm 0 W/m2
02:22 15.2 °C 12.5 °C 1016.3 hPa NE 1.4 km/h 4.8 km/h 84% 0.0 mm 0 W/m2
02:27 15.2 °C 12.5 °C 1016.3 hPa WNW 1.4 km/h 3.2 km/h 84% 0.0 mm 0 W/m2
02:32 15.2 °C 12.5 °C 1016.3 hPa NNE 1.4 km/h 3.2 km/h 84% 0.0 mm 0 W/m2
02:37 15.1 °C 12.6 °C 1016.3 hPa Calm   9.7 km/h 85% 0.0 mm 0 W/m2
02:42 15.2 °C 12.7 °C 1016.3 hPa WNW 1.4 km/h 4.8 km/h 85% 0.0 mm 0 W/m2
02:47 15.1 °C 12.6 °C 1016.3 hPa Calm   1.6 km/h 85% 0.0 mm 0 W/m2
02:52 15.1 °C 12.6 °C 1016.3 hPa Calm   4.8 km/h 85% 0.0 mm 0 W/m2
02:57 15.1 °C 12.6 °C 1016.3 hPa Calm   1.6 km/h 85% 0.0 mm 0 W/m2
03:02 15.1 °C 12.6 °C 1016.3 hPa Calm   4.8 km/h 85% 0.0 mm 0 W/m2
03:07 15.1 °C 12.6 °C 1016.3 hPa SE 1.4 km/h 1.6 km/h 85% 0.0 mm 0 W/m2
03:12 15 °C 12.5 °C 1016.3 hPa ENE 3.2 km/h 6.4 km/h 85% 0.0 mm 0 W/m2
03:17 15 °C 12.7 °C 1016.3 hPa Calm   3.2 km/h 86% 0.0 mm 0 W/m2
03:22 15 °C 12.7 °C 1016.3 hPa Calm   3.2 km/h 86% 0.0 mm 0 W/m2
03:27 15 °C 12.7 °C 1015.9 hPa WNW 1.4 km/h 3.2 km/h 86% 0.0 mm 0 W/m2
03:32 15.1 °C 13 °C 1015.9 hPa NW 1.4 km/h 4.8 km/h 87% 0.0 mm 0 W/m2
03:37 15.1 °C 13 °C 1015.9 hPa East 4.7 km/h 12.9 km/h 87% 0.0 mm 0 W/m2
03:42 15.1 °C 13 °C 1015.9 hPa NW 4.7 km/h 8 km/h 87% 0.0 mm 0 W/m2
03:47 15.1 °C 13 °C 1015.9 hPa ESE 6.4 km/h 12.9 km/h 87% 0.0 mm 0 W/m2
03:52 15.1 °C 13 °C 1015.9 hPa NNW 1.4 km/h 1.6 km/h 87% 0.0 mm 0 W/m2
03:57 15.1 °C 13 °C 1015.9 hPa NNE 3.2 km/h 9.7 km/h 87% 0.0 mm 0 W/m2
04:02 15.1 °C 13 °C 1015.6 hPa NNE 3.2 km/h 4.8 km/h 87% 0.0 mm 0 W/m2
04:07 15.1 °C 13 °C 1015.6 hPa NW 4.7 km/h 12.9 km/h 87% 0.0 mm 0 W/m2
04:12 15.1 °C 13 °C 1015.6 hPa WNW 4.7 km/h 4.8 km/h 87% 0.0 mm 0 W/m2
04:17 15.1 °C 13 °C 1015.6 hPa West 6.4 km/h 9.7 km/h 87% 0.0 mm 0 W/m2
04:22 15.1 °C 13.1 °C 1015.9 hPa West 3.2 km/h 11.3 km/h 88% 0.0 mm 0 W/m2
04:27 15.1 °C 13.1 °C 1015.9 hPa ESE 9.7 km/h 9.7 km/h 88% 0.0 mm 0 W/m2
04:32 15.1 °C 13.1 °C 1015.6 hPa NNW 3.2 km/h 9.7 km/h 88% 0.0 mm 0 W/m2
04:37 15 °C 13 °C 1015.2 hPa East 1.4 km/h 12.9 km/h 88% 0.0 mm 0 W/m2
04:42 15 °C 13 °C 1015.6 hPa Calm   4.8 km/h 88% 0.0 mm 0 W/m2
04:47 14.9 °C 13.1 °C 1015.6 hPa ENE 4.7 km/h 9.7 km/h 89% 0.0 mm 0 W/m2
04:52 14.9 °C 13.1 °C 1015.9 hPa NW 1.4 km/h 11.3 km/h 89% 0.0 mm 0 W/m2
04:57 14.8 °C 13 °C 1015.6 hPa Calm   6.4 km/h 89% 0.0 mm 0 W/m2
05:02 14.8 °C 13 °C 1015.6 hPa SE 3.2 km/h 11.3 km/h 89% 0.0 mm 0 W/m2
05:07 14.8 °C 13.2 °C 1015.6 hPa North 1.4 km/h 4.8 km/h 90% 0.0 mm 0 W/m2
05:12 14.7 °C 13.1 °C 1015.6 hPa NNE 3.2 km/h 4.8 km/h 90% 0.0 mm 0 W/m2
05:17 14.7 °C 13.1 °C 1015.2 hPa NE 1.4 km/h 3.2 km/h 90% 0.0 mm 0 W/m2
05:22 14.7 °C 13.1 °C 1015.6 hPa NW 4.7 km/h 11.3 km/h 90% 0.0 mm 0 W/m2
05:27 14.7 °C 13.2 °C 1015.6 hPa NW 1.4 km/h 6.4 km/h 91% 0.0 mm 0 W/m2
05:32 14.7 °C 13.2 °C 1015.6 hPa NW 1.4 km/h 11.3 km/h 91% 0.0 mm 0 W/m2
05:37 14.7 °C 13.2 °C 1015.2 hPa West 3.2 km/h 9.7 km/h 91% 0.0 mm 0 W/m2
05:42 14.7 °C 13.2 °C 1015.2 hPa Calm   4.8 km/h 91% 0.0 mm 0 W/m2
05:47 14.7 °C 13.2 °C 1015.2 hPa NNW 1.4 km/h 9.7 km/h 91% 0.0 mm 0 W/m2
05:52 14.7 °C 13.2 °C 1015.2 hPa North 1.4 km/h 3.2 km/h 91% 0.0 mm 0 W/m2
05:57 14.6 °C 13.3 °C 1015.2 hPa WNW 4.7 km/h 4.8 km/h 92% 0.0 mm 0 W/m2
06:02 14.6 °C 13.3 °C 1015.2 hPa ENE 1.4 km/h 4.8 km/h 92% 0.0 mm 0 W/m2
06:07 14.7 °C 13.4 °C 1015.2 hPa NNE 4.7 km/h 8 km/h 92% 0.0 mm 0 W/m2
06:12 14.7 °C 13.4 °C 1015.2 hPa NE 6.4 km/h 8 km/h 92% 0.0 mm 0 W/m2
06:17 14.7 °C 13.4 °C 1015.2 hPa WSW 3.2 km/h 6.4 km/h 92% 0.0 mm 0 W/m2
06:22 14.7 °C 13.4 °C 1015.2 hPa East 1.4 km/h 4.8 km/h 92% 0.0 mm 0 W/m2
06:27 14.6 °C 13.3 °C 1015.2 hPa West 1.4 km/h 11.3 km/h 92% 0.0 mm 0 W/m2
06:32 14.6 °C 13.3 °C 1015.2 hPa North 1.4 km/h 3.2 km/h 92% 0.0 mm 0 W/m2
06:37 14.5 °C 13.2 °C 1015.2 hPa NNE 1.4 km/h 11.3 km/h 92% 0.0 mm 0 W/m2
06:42 14.4 °C 13.3 °C 1015.2 hPa NE 3.2 km/h 4.8 km/h 93% 0.0 mm 0 W/m2
06:47 14.3 °C 13.2 °C 1015.2 hPa NE 3.2 km/h 8 km/h 93% 0.0 mm 0 W/m2
06:52 14.3 °C 13.2 °C 1014.9 hPa Calm   4.8 km/h 93% 0.0 mm 0 W/m2
06:57 14.3 °C 13.2 °C 1015.2 hPa East 3.2 km/h 3.2 km/h 93% 0.0 mm 0 W/m2
07:03 14.3 °C 13.3 °C 1015.2 hPa Calm   3.2 km/h 94% 0.0 mm 0 W/m2
07:08 14.3 °C 13.3 °C 1015.2 hPa NNE 1.4 km/h 3.2 km/h 94% 0.0 mm 0 W/m2
07:13 14.3 °C 13.3 °C 1015.2 hPa NNW 3.2 km/h 4.8 km/h 94% 0.0 mm 0 W/m2
07:18 14.3 °C 13.3 °C 1015.2 hPa NNW 3.2 km/h 6.4 km/h 94% 0.0 mm 0 W/m2
07:23 14.3 °C 13.3 °C 1015.2 hPa WSW 1.4 km/h 6.4 km/h 94% 0.0 mm 0 W/m2
07:28 14.3 °C 13.3 °C 1015.2 hPa Calm   4.8 km/h 94% 0.0 mm 0 W/m2
07:33 14.3 °C 13.3 °C 1015.2 hPa NNW 4.7 km/h 6.4 km/h 94% 0.0 mm 0 W/m2
07:38 14.4 °C 13.4 °C 1015.2 hPa NNE 4.7 km/h 4.8 km/h 94% 0.0 mm 0 W/m2
07:43 14.4 °C 13.4 °C 1015.2 hPa West 6.4 km/h 6.4 km/h 94% 0.0 mm 0 W/m2
07:48 14.5 °C 13.5 °C 1015.2 hPa NNW 3.2 km/h 6.4 km/h 94% 0.0 mm 7 W/m2
07:53 14.5 °C 13.5 °C 1015.2 hPa Calm   3.2 km/h 94% 0.0 mm 5 W/m2
07:58 14.6 °C 13.6 °C 1015.2 hPa North 3.2 km/h 6.4 km/h 94% 0.0 mm 7 W/m2
08:03 14.6 °C 13.6 °C 1015.2 hPa NE 3.2 km/h 9.7 km/h 94% 0.0 mm 9 W/m2
08:08 14.6 °C 13.6 °C 1015.2 hPa Calm   3.2 km/h 94% 0.0 mm 9 W/m2
08:13 14.6 °C 13.5 °C 1015.2 hPa NNE 1.4 km/h 4.8 km/h 93% 0.0 mm 9 W/m2
08:18 14.7 °C 13.6 °C 1015.2 hPa NE 4.7 km/h 6.4 km/h 93% 0.0 mm 7 W/m2
08:23 14.7 °C 13.6 °C 1015.2 hPa ENE 3.2 km/h 3.2 km/h 93% 0.0 mm 16 W/m2
08:28 14.7 °C 13.6 °C 1015.2 hPa North 3.2 km/h 6.4 km/h 93% 0.0 mm 21 W/m2
08:33 14.7 °C 13.6 °C 1015.2 hPa ENE 1.4 km/h 6.4 km/h 93% 0.0 mm 23 W/m2
08:38 14.7 °C 13.6 °C 1015.2 hPa ENE 3.2 km/h 4.8 km/h 93% 0.0 mm 23 W/m2
08:43 14.7 °C 13.6 °C 1015.2 hPa Calm   6.4 km/h 93% 0.0 mm 19 W/m2
08:48 14.7 °C 13.6 °C 1015.2 hPa NNE 1.4 km/h 8 km/h 93% 0.0 mm 19 W/m2
08:53 14.8 °C 13.7 °C 1015.2 hPa NE 4.7 km/h 4.8 km/h 93% 0.0 mm 14 W/m2
08:58 14.8 °C 13.7 °C 1015.6 hPa NE 1.4 km/h 8 km/h 93% 0.0 mm 11 W/m2
09:03 14.8 °C 13.7 °C 1015.2 hPa North 4.7 km/h 8 km/h 93% 0.0 mm 21 W/m2
09:08 14.9 °C 13.8 °C 1015.2 hPa ENE 3.2 km/h 12.9 km/h 93% 0.0 mm 28 W/m2
09:13 14.9 °C 13.8 °C 1015.2 hPa NE 1.4 km/h 1.6 km/h 93% 0.0 mm 28 W/m2
09:18 14.9 °C 13.8 °C 1015.2 hPa NNE 1.4 km/h 6.4 km/h 93% 0.0 mm 37 W/m2
09:23 15 °C 13.9 °C 1015.2 hPa NE 3.2 km/h 4.8 km/h 93% 0.0 mm 37 W/m2
09:28 15 °C 13.9 °C 1015.2 hPa NNW 6.4 km/h 6.4 km/h 93% 0.0 mm 37 W/m2
09:33 15.1 °C 14 °C 1015.2 hPa NW 6.4 km/h 8 km/h 93% 0.0 mm 28 W/m2
09:38 15.1 °C 14 °C 1014.9 hPa NE 3.2 km/h 8 km/h 93% 0.0 mm 30 W/m2
09:44 15.1 °C 14 °C 1014.9 hPa NNW 1.4 km/h 6.4 km/h 93% 0.0 mm 30 W/m2
09:49 15.2 °C 14.1 °C 1014.9 hPa North 3.2 km/h 8 km/h 93% 0.2 mm 26 W/m2
09:54 15.2 °C 14.1 °C 1014.9 hPa East 3.2 km/h 4.8 km/h 93% 0.2 mm 32 W/m2
09:59 15.1 °C 14 °C 1014.9 hPa NE 3.2 km/h 8 km/h 93% 0.2 mm 44 W/m2
10:04 15.1 °C 14 °C 1014.9 hPa West 3.2 km/h 11.3 km/h 93% 0.2 mm 46 W/m2
10:09 15.1 °C 14.1 °C 1014.9 hPa NNW 4.7 km/h 8 km/h 94% 0.5 mm 67 W/m2
10:14 15.1 °C 14.1 °C 1014.9 hPa NW 1.4 km/h 6.4 km/h 94% 0.5 mm 69 W/m2
10:19 15.2 °C 14.2 °C 1014.9 hPa SE 1.4 km/h 3.2 km/h 94% 0.5 mm 62 W/m2
10:24 15.2 °C 14.2 °C 1014.9 hPa ENE 9.7 km/h 9.7 km/h 94% 0.5 mm 56 W/m2
10:29 15.2 °C 14.2 °C 1014.9 hPa NNW 4.7 km/h 8 km/h 94% 0.5 mm 56 W/m2
10:34 15.2 °C 14.2 °C 1014.6 hPa North 3.2 km/h 3.2 km/h 94% 0.8 mm 84 W/m2
10:39 15.2 °C 14.2 °C 1014.6 hPa NE 4.7 km/h 6.4 km/h 94% 1.0 mm 86 W/m2
10:44 15.2 °C 14.2 °C 1014.6 hPa NE 1.4 km/h 3.2 km/h 94% 1.3 mm 83 W/m2
10:49 15.2 °C 14.2 °C 1014.6 hPa North 1.4 km/h 6.4 km/h 94% 1.0 mm 62 W/m2
10:54 15.3 °C 14.5 °C 1014.2 hPa Calm   1.6 km/h 95% 1.3 mm 69 W/m2
10:59 15.2 °C 14.2 °C 1014.6 hPa Calm   12.9 km/h 94% 1.3 mm 37 W/m2
11:04 15.3 °C 14.3 °C 1014.2 hPa NNE 1.4 km/h 6.4 km/h 94% 1.3 mm 39 W/m2
11:09 15.3 °C 14.3 °C 1014.6 hPa West 4.7 km/h 17.7 km/h 94% 1.0 mm 33 W/m2
11:14 15.3 °C 14.3 °C 1014.6 hPa WNW 7.9 km/h 14.5 km/h 94% 1.0 mm 44 W/m2
11:19 15.4 °C 14.4 °C 1014.6 hPa NW 3.2 km/h 12.9 km/h 94% 1.0 mm 32 W/m2
11:24 15.5 °C 14.5 °C 1014.6 hPa NNE 3.2 km/h 11.3 km/h 94% 1.0 mm 33 W/m2
11:29 15.6 °C 14.5 °C 1014.2 hPa NW 14.3 km/h 16.1 km/h 93% 0.8 mm 42 W/m2
11:34 15.6 °C 14.5 °C 1014.2 hPa West 3.2 km/h 9.7 km/h 93% 0.5 mm 58 W/m2
11:39 15.7 °C 14.4 °C 1014.2 hPa ENE 4.7 km/h 8 km/h 92% 0.5 mm 46 W/m2
11:44 15.8 °C 14.5 °C 1014.2 hPa ENE 7.9 km/h 8 km/h 92% 0.5 mm 67 W/m2
11:49 15.8 °C 14.5 °C 1014.2 hPa WNW 4.7 km/h 9.7 km/h 92% 0.5 mm 44 W/m2
11:54 15.8 °C 14.3 °C 1014.2 hPa SSW 4.7 km/h 32.2 km/h 91% 0.2 mm 60 W/m2
11:59 15.9 °C 14.3 °C 1014.2 hPa South 1.4 km/h 17.7 km/h 90% 0.2 mm 53 W/m2
12:04 15.9 °C 14.3 °C 1014.2 hPa NW 11.1 km/h 32.2 km/h 90% 0.2 mm 62 W/m2
12:09 15.9 °C 14.3 °C 1014.2 hPa ENE 1.4 km/h 8 km/h 90% 0.2 mm 81 W/m2
12:14 15.9 °C 14.1 °C 1014.2 hPa WNW 4.7 km/h 17.7 km/h 89% 0.2 mm 83 W/m2
12:19 15.8 °C 14 °C 1014.2 hPa North 4.7 km/h 9.7 km/h 89% 0.2 mm 58 W/m2
12:24 15.8 °C 14.2 °C 1014.2 hPa WNW 11.1 km/h 14.5 km/h 90% 0.2 mm 91 W/m2
12:29 15.7 °C 13.9 °C 1014.2 hPa North 4.7 km/h 20.9 km/h 89% 0.2 mm 70 W/m2
12:34 15.6 °C 14 °C 1014.2 hPa NW 4.7 km/h 12.9 km/h 90% 0.2 mm 53 W/m2
12:39 15.6 °C 14 °C 1013.9 hPa South 9.7 km/h 20.9 km/h 90% 0.0 mm 42 W/m2
12:44 15.6 °C 14 °C 1013.9 hPa West 11.1 km/h 16.1 km/h 90% 0.0 mm 105 W/m2
12:49 15.7 °C 13.9 °C 1013.9 hPa WNW 7.9 km/h 19.3 km/h 89% 0.0 mm 102 W/m2
12:54 15.7 °C 14.1 °C 1013.9 hPa WNW 1.4 km/h 8 km/h 90% 0.0 mm 98 W/m2
12:59 15.6 °C 14 °C 1013.9 hPa South 7.9 km/h 19.3 km/h 90% 0.2 mm 70 W/m2
13:04 15.5 °C 14 °C 1013.9 hPa Calm   8 km/h 91% 0.2 mm 81 W/m2
13:09 15.5 °C 14 °C 1013.9 hPa NNW 1.4 km/h 14.5 km/h 91% 0.2 mm 86 W/m2
13:14 15.5 °C 14 °C 1013.5 hPa West 4.7 km/h 9.7 km/h 91% 0.2 mm 109 W/m2
13:19 15.5 °C 14 °C 1013.9 hPa NNW 3.2 km/h 6.4 km/h 91% 0.2 mm 97 W/m2
13:24 15.5 °C 14 °C 1013.5 hPa NNW 4.7 km/h 11.3 km/h 91% 0.2 mm 95 W/m2
13:29 15.5 °C 14.2 °C 1013.5 hPa NNW 4.7 km/h 12.9 km/h 92% 0.2 mm 93 W/m2
13:34 15.5 °C 14.2 °C 1013.5 hPa WNW 7.9 km/h 16.1 km/h 92% 0.5 mm 91 W/m2
13:39 15.5 °C 14.2 °C 1013.5 hPa NNW 9.7 km/h 12.9 km/h 92% 0.5 mm 95 W/m2
13:44 15.5 °C 14.2 °C 1013.5 hPa WSW 3.2 km/h 16.1 km/h 92% 0.5 mm 79 W/m2
13:49 15.4 °C 14.1 °C 1013.5 hPa NNW 4.7 km/h 8 km/h 92% 0.8 mm 86 W/m2
13:54 15.4 °C 14.3 °C 1013.5 hPa ENE 6.4 km/h 11.3 km/h 93% 1.0 mm 116 W/m2
13:59 15.4 °C 14.3 °C 1013.5 hPa NNW 13 km/h 12.9 km/h 93% 0.8 mm 111 W/m2
14:04 15.4 °C 14.3 °C 1013.2 hPa NW 7.9 km/h 9.7 km/h 93% 0.8 mm 107 W/m2
14:09 15.4 °C 14.3 °C 1013.2 hPa SW 3.2 km/h 19.3 km/h 93% 1.0 mm 105 W/m2
14:14 15.4 °C 14.3 °C 1013.2 hPa NNW 4.7 km/h 12.9 km/h 93% 1.0 mm 77 W/m2
14:19 15.3 °C 14.2 °C 1013.2 hPa NW 3.2 km/h 11.3 km/h 93% 1.3 mm 49 W/m2
14:24 15.3 °C 14.2 °C 1013.2 hPa North 4.7 km/h 14.5 km/h 93% 1.3 mm 26 W/m2
14:29 15.3 °C 14.2 °C 1013.2 hPa SW 3.2 km/h 8 km/h 93% 1.3 mm 33 W/m2
14:34 15.3 °C 14.2 °C 1013.2 hPa NNW 4.7 km/h 6.4 km/h 93% 1.0 mm 63 W/m2
14:39 15.3 °C 14.2 °C 1013.2 hPa West 6.4 km/h 8 km/h 93% 1.0 mm 40 W/m2
14:44 15.3 °C 14.2 °C 1013.5 hPa ENE 4.7 km/h 12.9 km/h 93% 0.8 mm 28 W/m2
14:50 15.3 °C 14.2 °C 1013.5 hPa NNE 1.4 km/h 3.2 km/h 93% 0.5 mm 23 W/m2
14:55 15.3 °C 14.2 °C 1013.5 hPa NW 3.2 km/h 6.4 km/h 93% 0.5 mm 51 W/m2
15:00 15.3 °C 14.2 °C 1013.5 hPa North 3.2 km/h 4.8 km/h 93% 0.5 mm 35 W/m2
15:05 15.3 °C 14.2 °C 1013.5 hPa ESE 9.7 km/h 11.3 km/h 93% 0.2 mm 11 W/m2
15:10 15.3 °C 14.3 °C 1013.5 hPa NW 3.2 km/h 12.9 km/h 94% 0.5 mm 9 W/m2
15:15 15.2 °C 14.2 °C 1013.5 hPa NW 4.7 km/h 4.8 km/h 94% 0.5 mm 11 W/m2
15:20 15.2 °C 14.2 °C 1013.5 hPa Calm   8 km/h 94% 0.2 mm 12 W/m2
15:25 15.3 °C 14.3 °C 1013.2 hPa NNW 1.4 km/h 6.4 km/h 94% 0.2 mm 18 W/m2
15:30 15.3 °C 14.3 °C 1013.2 hPa ENE 3.2 km/h 6.4 km/h 94% 0.2 mm 26 W/m2
15:35 15.4 °C 14.3 °C 1013.2 hPa NNW 6.4 km/h 6.4 km/h 93% 0.2 mm 26 W/m2
15:40 15.4 °C 14.3 °C 1013.2 hPa NE 1.4 km/h 14.5 km/h 93% 0.2 mm 16 W/m2
15:45 15.5 °C 14.4 °C 1013.5 hPa WNW 11.1 km/h 12.9 km/h 93% 0.2 mm 21 W/m2
15:50 15.6 °C 14.5 °C 1013.5 hPa NW 13 km/h 12.9 km/h 93% 0.2 mm 12 W/m2
15:55 15.7 °C 14.4 °C 1013.5 hPa NNE 1.4 km/h 3.2 km/h 92% 0.2 mm 14 W/m2
16:00 15.7 °C 14.4 °C 1013.2 hPa WNW 1.4 km/h 3.2 km/h 92% 0.2 mm 18 W/m2
16:05 15.7 °C 14.4 °C 1013.2 hPa NW 4.7 km/h 6.4 km/h 92% 0.2 mm 23 W/m2
16:10 15.7 °C 14.4 °C 1013.2 hPa NW 3.2 km/h 3.2 km/h 92% 0.0 mm 12 W/m2
16:15 15.7 °C 14.4 °C 1013.2 hPa NNW 3.2 km/h 11.3 km/h 92% 0.0 mm 7 W/m2
16:20 15.7 °C 14.4 °C 1013.2 hPa Calm   6.4 km/h 92% 0.0 mm 5 W/m2
16:25 15.7 °C 14.4 °C 1013.5 hPa NNW 3.2 km/h 11.3 km/h 92% 0.0 mm 0 W/m2
16:30 15.7 °C 14.4 °C 1013.5 hPa WSW 1.4 km/h 6.4 km/h 92% 0.0 mm 0 W/m2
16:35 15.7 °C 14.4 °C 1013.5 hPa NNE 1.4 km/h 6.4 km/h 92% 0.0 mm 0 W/m2
16:40 15.6 °C 14.3 °C 1013.5 hPa North 3.2 km/h 3.2 km/h 92% 0.0 mm 0 W/m2
16:45 15.6 °C 14.3 °C 1013.5 hPa SW 6.4 km/h 6.4 km/h 92% 0.0 mm 0 W/m2
16:50 15.7 °C 14.4 °C 1013.2 hPa SW 1.4 km/h 8 km/h 92% 0.0 mm 0 W/m2
16:55 15.7 °C 14.4 °C 1013.5 hPa Calm   9.7 km/h 92% 0.0 mm 0 W/m2
17:00 15.7 °C 14.4 °C 1013.2 hPa ESE 3.2 km/h 9.7 km/h 92% 0.0 mm 0 W/m2
17:05 15.8 °C 14.3 °C 1013.2 hPa NW 6.4 km/h 6.4 km/h 91% 0.0 mm 0 W/m2
17:10 15.8 °C 14.3 °C 1013.2 hPa Calm   3.2 km/h 91% 0.0 mm 0 W/m2
17:15 15.8 °C 14.3 °C 1013.2 hPa NNE 3.2 km/h 6.4 km/h 91% 0.0 mm 0 W/m2
17:20 15.8 °C 14.3 °C 1013.2 hPa North 1.4 km/h 3.2 km/h 91% 0.0 mm 0 W/m2
17:25 15.8 °C 14.3 °C 1013.2 hPa NNW 1.4 km/h 8 km/h 91% 0.0 mm 0 W/m2
17:30 15.8 °C 14.3 °C 1013.2 hPa NNE 3.2 km/h 4.8 km/h 91% 0.0 mm 0 W/m2
17:35 15.8 °C 14.2 °C 1012.9 hPa North 1.4 km/h 9.7 km/h 90% 0.0 mm 0 W/m2
17:40 15.8 °C 14.2 °C 1012.9 hPa NNW 4.7 km/h 8 km/h 90% 0.0 mm 0 W/m2
17:45 16 °C 14.2 °C 1013.2 hPa WNW 4.7 km/h 11.3 km/h 89% 0.0 mm 0 W/m2
17:50 16 °C 14.2 °C 1013.2 hPa NE 3.2 km/h 6.4 km/h 89% 0.0 mm 0 W/m2
17:55 16.1 °C 14.3 °C 1013.2 hPa NE 3.2 km/h 9.7 km/h 89% 0.0 mm 0 W/m2
18:00 16.2 °C 14.2 °C 1013.2 hPa NNW 4.7 km/h 12.9 km/h 88% 0.0 mm 0 W/m2
18:05 16.2 °C 14.2 °C 1013.2 hPa NNE 3.2 km/h 4.8 km/h 88% 0.0 mm 0 W/m2
18:10 16.2 °C 14.2 °C 1013.2 hPa SW 11.1 km/h 11.3 km/h 88% 0.0 mm 0 W/m2
18:15 16.2 °C 14.2 °C 1013.5 hPa NW 9.7 km/h 12.9 km/h 88% 0.0 mm 0 W/m2
18:20 16.2 °C 14 °C 1013.5 hPa NW 6.4 km/h 14.5 km/h 87% 0.0 mm 0 W/m2
18:25 16.2 °C 14 °C 1013.2 hPa NNW 1.4 km/h 6.4 km/h 87% 0.0 mm 0 W/m2
18:30 16.3 °C 14.1 °C 1013.2 hPa SE 4.7 km/h 11.3 km/h 87% 0.0 mm 0 W/m2
18:35 16.3 °C 14.1 °C 1013.2 hPa SW 3.2 km/h 8 km/h 87% 0.0 mm 0 W/m2
18:40 16.3 °C 14.1 °C 1013.2 hPa West 1.4 km/h 8 km/h 87% 0.0 mm 0 W/m2
18:45 16.3 °C 14.1 °C 1013.2 hPa NNW 3.2 km/h 6.4 km/h 87% 0.0 mm 0 W/m2
18:50 16.3 °C 14.1 °C 1013.2 hPa North 1.4 km/h 8 km/h 87% 0.0 mm 0 W/m2
18:55 16.3 °C 14.1 °C 1013.5 hPa West 4.7 km/h 4.8 km/h 87% 0.0 mm 0 W/m2
19:00 16.4 °C 14.2 °C 1013.5 hPa SW 3.2 km/h 9.7 km/h 87% 0.0 mm 0 W/m2
19:05 16.4 °C 14.1 °C 1013.5 hPa East 3.2 km/h 3.2 km/h 86% 0.0 mm 0 W/m2
19:10 16.5 °C 14.1 °C 1013.5 hPa West 6.4 km/h 9.7 km/h 86% 0.0 mm 0 W/m2
19:15 16.6 °C 14.2 °C 1013.5 hPa NE 3.2 km/h 11.3 km/h 86% 0.0 mm 0 W/m2
19:20 16.6 °C 14.2 °C 1013.5 hPa Calm   6.4 km/h 86% 0.0 mm 0 W/m2
19:25 16.6 °C 14.2 °C 1013.5 hPa North 1.4 km/h 4.8 km/h 86% 0.0 mm 0 W/m2
19:30 16.7 °C 14.3 °C 1013.5 hPa East 1.4 km/h 6.4 km/h 86% 0.0 mm 0 W/m2
19:35 16.7 °C 14.5 °C 1013.2 hPa North 1.4 km/h 3.2 km/h 87% 0.0 mm 0 W/m2
19:40 16.6 °C 14.4 °C 1013.2 hPa North 3.2 km/h 6.4 km/h 87% 0.0 mm 0 W/m2
19:45 16.6 °C 14.4 °C 1013.2 hPa North 3.2 km/h 6.4 km/h 87% 0.0 mm 0 W/m2
19:50 16.6 °C 14.4 °C 1012.9 hPa West 1.4 km/h 12.9 km/h 87% 0.0 mm 0 W/m2
19:55 16.7 °C 14.5 °C 1012.9 hPa WNW 3.2 km/h 11.3 km/h 87% 0.0 mm 0 W/m2
20:00 16.7 °C 14.5 °C 1012.9 hPa WNW 4.7 km/h 16.1 km/h 87% 0.0 mm 0 W/m2
20:05 16.7 °C 14.5 °C 1012.9 hPa SW 1.4 km/h 6.4 km/h 87% 0.0 mm 0 W/m2
20:10 16.8 °C 14.6 °C 1012.9 hPa South 6.4 km/h 11.3 km/h 87% 0.0 mm 0 W/m2
20:15 16.7 °C 14.7 °C 1012.9 hPa NW 4.7 km/h 8 km/h 88% 0.0 mm 0 W/m2
20:20 16.7 °C 14.7 °C 1012.5 hPa WNW 3.2 km/h 8 km/h 88% 0.0 mm 0 W/m2
20:25 16.7 °C 14.7 °C 1012.9 hPa West 3.2 km/h 8 km/h 88% 0.0 mm 0 W/m2
20:30 16.8 °C 14.8 °C 1012.9 hPa WNW 1.4 km/h 6.4 km/h 88% 0.0 mm 0 W/m2
20:35 16.8 °C 14.8 °C 1012.9 hPa NW 1.4 km/h 8 km/h 88% 0.0 mm 0 W/m2
20:40 16.8 °C 14.8 °C 1012.9 hPa Calm   4.8 km/h 88% 0.0 mm 0 W/m2
20:45 16.8 °C 14.8 °C 1012.9 hPa NW 16.3 km/h 16.1 km/h 88% 0.0 mm 0 W/m2
20:50 16.8 °C 14.8 °C 1012.9 hPa WSW 6.4 km/h 9.7 km/h 88% 0.0 mm 0 W/m2
20:55 16.8 °C 14.8 °C 1012.9 hPa NW 9.7 km/h 14.5 km/h 88% 0.0 mm 0 W/m2
21:00 16.8 °C 14.8 °C 1012.9 hPa North 4.7 km/h 6.4 km/h 88% 0.0 mm 0 W/m2
21:05 16.8 °C 14.8 °C 1013.2 hPa NNW 7.9 km/h 14.5 km/h 88% 0.0 mm 0 W/m2
21:10 16.8 °C 14.8 °C 1012.9 hPa ENE 1.4 km/h 6.4 km/h 88% 0.0 mm 0 W/m2
21:15 16.8 °C 14.8 °C 1012.9 hPa NW 4.7 km/h 12.9 km/h 88% 0.0 mm 0 W/m2
21:20 16.8 °C 14.8 °C 1012.9 hPa NE 3.2 km/h 6.4 km/h 88% 0.0 mm 0 W/m2
21:25 16.8 °C 14.8 °C 1012.9 hPa NW 4.7 km/h 8 km/h 88% 0.0 mm 0 W/m2
21:30 16.8 °C 14.8 °C 1012.9 hPa Calm   6.4 km/h 88% 0.0 mm 0 W/m2
21:35 16.8 °C 14.8 °C 1012.9 hPa NW 6.4 km/h 12.9 km/h 88% 0.0 mm 0 W/m2
21:40 16.9 °C 14.9 °C 1012.9 hPa SW 11.1 km/h 11.3 km/h 88% 0.0 mm 0 W/m2
21:45 16.9 °C 14.9 °C 1012.9 hPa North 6.4 km/h 8 km/h 88% 0.0 mm 0 W/m2
21:50 16.9 °C 14.9 °C 1012.9 hPa WSW 11.1 km/h 12.9 km/h 88% 0.0 mm 0 W/m2
21:55 17 °C 15 °C 1012.9 hPa NW 1.4 km/h 12.9 km/h 88% 0.0 mm 0 W/m2
22:00 17.1 °C 15.1 °C 1013.2 hPa East 4.7 km/h 11.3 km/h 88% 0.0 mm 0 W/m2
22:05 17.1 °C 15.1 °C 1012.9 hPa North 3.2 km/h 14.5 km/h 88% 0.0 mm 0 W/m2
22:10 17.2 °C 15.2 °C 1012.9 hPa WNW 3.2 km/h 17.7 km/h 88% 0.0 mm 0 W/m2
22:15 17.2 °C 15.2 °C 1013.2 hPa NW 6.4 km/h 11.3 km/h 88% 0.0 mm 0 W/m2
22:20 17.2 °C 15.2 °C 1013.2 hPa NW 1.4 km/h 9.7 km/h 88% 0.0 mm 0 W/m2
22:25 17.3 °C 15.3 °C 1013.2 hPa WNW 16.3 km/h 16.1 km/h 88% 0.0 mm 0 W/m2
22:30 17.3 °C 15.3 °C 1013.2 hPa North 1.4 km/h 17.7 km/h 88% 0.0 mm 0 W/m2
22:35 17.3 °C 15.3 °C 1013.5 hPa WSW 6.4 km/h 6.4 km/h 88% 0.0 mm 0 W/m2
22:40 17.3 °C 15.3 °C 1013.5 hPa Calm   16.1 km/h 88% 0.0 mm 0 W/m2
22:45 17.3 °C 15.3 °C 1013.5 hPa NNW 4.7 km/h 4.8 km/h 88% 0.0 mm 0 W/m2
22:50 17.3 °C 15.3 °C 1013.5 hPa ENE 3.2 km/h 9.7 km/h 88% 0.0 mm 0 W/m2
22:55 17.3 °C 15.3 °C 1013.2 hPa West 1.4 km/h 8 km/h 88% 0.0 mm 0 W/m2
23:00 17.3 °C 15.3 °C 1013.2 hPa North 1.4 km/h 6.4 km/h 88% 0.0 mm 0 W/m2
23:05 17.3 °C 15.3 °C 1013.2 hPa West 3.2 km/h 19.3 km/h 88% 0.0 mm 0 W/m2
23:10 17.4 °C 15.4 °C 1013.5 hPa WNW 4.7 km/h 4.8 km/h 88% 0.0 mm 0 W/m2
23:15 17.4 °C 15.4 °C 1013.2 hPa North 1.4 km/h 19.3 km/h 88% 0.0 mm 0 W/m2
23:20 17.4 °C 15.2 °C 1013.2 hPa WNW 1.4 km/h 8 km/h 87% 0.0 mm 0 W/m2
23:25 17.5 °C 15.3 °C 1013.2 hPa NE 3.2 km/h 11.3 km/h 87% 0.0 mm 0 W/m2
23:30 17.6 °C 15.4 °C 1013.2 hPa WNW 4.7 km/h 12.9 km/h 87% 0.0 mm 0 W/m2
23:35 17.6 °C 15.4 °C 1012.9 hPa West 1.4 km/h 9.7 km/h 87% 0.0 mm 0 W/m2
23:40 17.6 °C 15.4 °C 1013.2 hPa NNE 7.9 km/h 8 km/h 87% 0.0 mm 0 W/m2
23:45 17.6 °C 15.4 °C 1013.2 hPa West 3.2 km/h 4.8 km/h 87% 0.0 mm 0 W/m2
23:50 17.6 °C 15.4 °C 1012.9 hPa ENE 3.2 km/h 11.3 km/h 87% 0.0 mm 0 W/m2
23:55 17.5 °C 15.3 °C 1012.9 hPa NNW 9.7 km/h 11.3 km/h 87% 0.0 mm 0 W/m2
Juneau County Weather
Compliments of Weather Underground - 2 mb